Dragor, Denmark
Current Conditions -  °F | °C
As of 1:50 AM on Saturday 20 Dec 2014 (Local Time) from EKCH Reporting Station
Scattered Clouds Scattered Clouds  
Wind Chill:   Ceiling: Unl
Heat Index:   Visibility: 6mi
Dew Point:   Wind: 20mph
Humidity: 81%   Direction: 250°WSW
Pressure: 29.53"   Gusts: NA
Location:  55.59°N, 12.67°E
Report Text: EKCH 200050Z 25017KT 9999 FEW021 SCT130 05/02 Q1000 TEMPOSHRA SCT020CB
Loading
Personal Weather Stations






























Interactive Weather Map New forecast layout! Learn more

10-Day Weather Forecast

Advertisements
Track Severe Weather on mobile